createdAt,value
2019-05-06T00:02:09.870Z,70.97
2019-05-06T00:04:44.708Z,70.83
2019-05-06T00:07:17.080Z,70.66
2019-05-06T00:09:49.860Z,71.24
2019-05-06T00:12:24.005Z,70.47
2019-05-06T00:14:56.816Z,71.23
2019-05-06T00:17:29.385Z,71.01
2019-05-06T00:20:04.123Z,70.85
2019-05-06T00:22:36.176Z,71.44
2019-05-06T00:25:14.088Z,70.38
2019-05-06T00:27:54.296Z,70.55
2019-05-06T00:30:26.487Z,70.24
2019-05-06T00:32:58.836Z,69.60
2019-05-06T00:35:31.444Z,69.17
2019-05-06T00:38:04.499Z,69.04
2019-05-06T00:40:54.775Z,69.08
2019-05-06T00:43:27.414Z,68.49
2019-05-06T00:46:00.770Z,70.93
2019-05-06T00:48:34.098Z,71.58
2019-05-06T00:51:07.198Z,71.40
2019-05-06T00:53:43.915Z,72.62
2019-05-06T00:56:16.595Z,73.00
2019-05-06T00:58:49.154Z,73.43
2019-05-06T01:01:26.977Z,73.76
2019-05-06T01:03:56.254Z,73.21
2019-05-06T01:06:29.056Z,74.03
2019-05-06T01:09:04.596Z,73.80
2019-05-06T01:11:39.121Z,74.70
2019-05-06T01:14:14.812Z,74.86
2019-05-06T01:16:47.745Z,74.68
2019-05-06T01:19:20.185Z,75.31
2019-05-06T01:21:54.014Z,74.98
2019-05-06T01:24:27.205Z,74.92
2019-05-06T01:26:59.940Z,75.48
2019-05-06T01:29:34.622Z,75.77
2019-05-06T01:32:06.845Z,75.45
2019-05-06T01:34:39.330Z,75.65
2019-05-06T01:37:14.270Z,75.25
2019-05-06T01:39:54.184Z,75.87
2019-05-06T01:42:46.870Z,75.82
2019-05-06T01:45:19.965Z,76.48
2019-05-06T01:47:54.339Z,76.91
2019-05-06T01:50:27.035Z,77.12
2019-05-06T01:52:59.795Z,77.45
2019-05-06T01:55:34.211Z,76.89
2019-05-06T01:58:06.873Z,77.36
2019-05-06T02:00:39.661Z,77.33
2019-05-06T02:03:14.730Z,76.95
2019-05-06T02:05:47.259Z,77.67
2019-05-06T02:08:20.000Z,76.99
2019-05-06T02:10:54.555Z,76.79
2019-05-06T02:13:27.185Z,76.84
2019-05-06T02:15:59.875Z,77.15
2019-05-06T02:18:33.970Z,77.18
2019-05-06T02:21:08.485Z,77.76
2019-05-06T02:23:44.148Z,78.12
2019-05-06T02:26:16.926Z,77.54
2019-05-06T02:28:51.095Z,78.42
2019-05-06T02:31:41.586Z,78.01
2019-05-06T02:34:25.900Z,77.44
2019-05-06T02:37:16.375Z,77.03
2019-05-06T02:39:49.126Z,77.77
2019-05-06T02:42:23.937Z,78.58
2019-05-06T02:44:56.218Z,78.99
2019-05-06T02:47:37.256Z,79.41
2019-05-06T02:50:14.616Z,79.74
2019-05-06T02:52:47.301Z,80.10
2019-05-06T02:55:19.853Z,80.07
2019-05-06T02:57:53.635Z,80.43
2019-05-06T03:00:26.732Z,80.38
2019-05-06T03:03:02.730Z,80.47
2019-05-06T03:05:33.825Z,80.37
2019-05-06T03:08:06.480Z,80.26
2019-05-06T03:10:39.236Z,79.76
2019-05-06T03:13:14.240Z,79.17
2019-05-06T03:15:46.445Z,79.07
2019-05-06T03:18:19.250Z,79.34
2019-05-06T03:20:59.903Z,79.33
2019-05-06T03:23:43.312Z,79.53
2019-05-06T03:26:14.529Z,79.59
2019-05-06T03:28:47.156Z,79.45
2019-05-06T03:31:25.307Z,79.46
2019-05-06T03:34:13.207Z,78.76
2019-05-06T03:36:34.918Z,78.04
2019-05-06T03:39:05.762Z,78.31
2019-05-06T03:41:38.872Z,78.04
2019-05-06T03:44:16.286Z,78.16
2019-05-06T03:46:54.432Z,77.81
2019-05-06T03:49:28.790Z,77.22
2019-05-06T03:52:02.788Z,76.88
2019-05-06T03:54:37.295Z,76.65
2019-05-06T03:57:09.898Z,76.12
2019-05-06T03:59:43.557Z,76.27
2019-05-06T04:02:17.796Z,75.58
2019-05-06T04:04:55.824Z,74.69
2019-05-06T04:07:25.280Z,73.09
2019-05-06T04:09:58.014Z,73.02
2019-05-06T04:12:33.668Z,72.10
2019-05-06T04:15:07.792Z,72.09
2019-05-06T04:17:43.803Z,72.14
2019-05-06T04:20:16.977Z,71.92
2019-05-06T04:22:53.256Z,71.37
2019-05-06T04:25:44.800Z,69.34
2019-05-06T04:28:19.100Z,68.51
2019-05-06T04:30:54.564Z,66.75
2019-05-06T04:33:27.123Z,66.89
2019-05-06T04:36:03.393Z,63.08
2019-05-06T04:38:35.335Z,62.49
2019-05-06T04:41:08.141Z,61.41
2019-05-06T04:43:43.619Z,59.56
2019-05-06T04:46:16.935Z,58.60
2019-05-06T04:48:49.727Z,56.58
2019-05-06T04:51:24.791Z,54.55
2019-05-06T04:53:57.389Z,48.74
2019-05-06T04:56:33.174Z,44.95
2019-05-06T04:59:06.240Z,44.99
2019-05-06T05:01:39.545Z,43.90
2019-05-06T05:04:24.658Z,43.90
2019-05-06T05:06:48.136Z,42.86
2019-05-06T05:09:23.083Z,42.23
2019-05-06T05:11:58.158Z,40.67
2019-05-06T05:14:38.335Z,38.77
2019-05-06T05:17:28.020Z,36.35
2019-05-06T05:20:02.127Z,34.79
2019-05-06T05:22:35.730Z,34.02
2019-05-06T05:25:09.075Z,33.88
2019-05-06T05:27:42.190Z,31.91
2019-05-06T05:30:15.760Z,30.98
2019-05-06T05:32:49.086Z,30.15
2019-05-06T05:35:22.719Z,29.54
2019-05-06T05:37:56.949Z,28.49
2019-05-06T05:40:32.068Z,30.78
2019-05-06T05:43:09.081Z,32.69
2019-05-06T05:45:42.411Z,33.17
2019-05-06T05:48:28.810Z,33.40
2019-05-06T05:51:03.285Z,33.22
2019-05-06T05:53:36.064Z,33.06
2019-05-06T05:56:09.261Z,34.43
2019-05-06T05:58:42.527Z,34.68
2019-05-06T06:01:15.228Z,33.87
2019-05-06T06:03:48.125Z,33.80
2019-05-06T06:06:22.160Z,34.50
2019-05-06T06:08:56.540Z,34.94
2019-05-06T06:11:33.389Z,35.46
2019-05-06T06:14:07.758Z,35.00
2019-05-06T06:16:42.320Z,36.78
2019-05-06T06:19:22.129Z,35.77
2019-05-06T06:21:56.537Z,36.35
2019-05-06T06:24:32.229Z,38.25
2019-05-06T06:27:05.859Z,37.09
2019-05-06T06:29:38.374Z,38.35
2019-05-06T06:32:27.936Z,38.77
2019-05-06T06:35:11.487Z,35.94
2019-05-06T06:37:53.220Z,35.57
2019-05-06T06:40:26.800Z,36.13
2019-05-06T06:43:02.206Z,34.56
2019-05-06T06:45:35.650Z,36.34
2019-05-06T06:48:08.630Z,36.04
2019-05-06T06:50:42.643Z,34.61
2019-05-06T06:53:15.596Z,35.92
2019-05-06T06:55:48.325Z,35.03
2019-05-06T06:58:26.296Z,35.16
2019-05-06T07:01:03.139Z,35.24
2019-05-06T07:03:39.295Z,34.79
2019-05-06T07:06:23.819Z,36.84
2019-05-06T07:08:56.697Z,34.46
2019-05-06T07:11:29.515Z,33.73
2019-05-06T07:14:02.716Z,34.33
2019-05-06T07:16:35.409Z,34.86
2019-05-06T07:19:08.230Z,34.44
2019-05-06T07:21:43.544Z,34.07
2019-05-06T07:24:16.330Z,34.21
2019-05-06T07:26:53.550Z,34.62
2019-05-06T07:29:26.729Z,34.87
2019-05-06T07:31:59.835Z,34.29
2019-05-06T07:34:32.286Z,36.66
2019-05-06T07:37:04.685Z,35.54
2019-05-06T07:39:38.355Z,34.89
2019-05-06T07:42:22.712Z,34.30
2019-05-06T07:45:06.420Z,33.17
2019-05-06T07:47:42.631Z,32.15
2019-05-06T07:50:15.765Z,32.65
2019-05-06T07:53:02.379Z,32.63
2019-05-06T07:55:35.115Z,35.54
2019-05-06T07:58:08.108Z,34.22
2019-05-06T08:00:42.300Z,33.90
2019-05-06T08:03:14.980Z,32.41
2019-05-06T08:05:57.503Z,33.63
2019-05-06T08:08:23.066Z,32.00
2019-05-06T08:10:55.655Z,32.81
2019-05-06T08:13:27.936Z,33.29
2019-05-06T08:16:02.271Z,30.53
2019-05-06T08:18:34.575Z,30.47
2019-05-06T08:21:08.535Z,29.38
2019-05-06T08:23:42.887Z,30.04
2019-05-06T08:26:17.792Z,29.09
2019-05-06T08:28:52.615Z,29.75
2019-05-06T08:31:25.015Z,29.28
2019-05-06T08:33:57.556Z,29.87
2019-05-06T08:36:42.634Z,30.32
2019-05-06T08:39:15.555Z,28.80
2019-05-06T08:41:48.255Z,28.21
2019-05-06T08:44:22.479Z,28.25
2019-05-06T08:46:55.297Z,30.34
2019-05-06T08:49:29.275Z,31.27
2019-05-06T08:52:03.177Z,29.38
2019-05-06T08:54:37.875Z,28.45
2019-05-06T08:57:11.903Z,28.91
2019-05-06T08:59:44.485Z,29.46
2019-05-06T09:02:17.515Z,28.19
2019-05-06T09:04:51.815Z,28.68
2019-05-06T09:07:24.296Z,29.33
2019-05-06T09:09:56.936Z,29.41
2019-05-06T09:12:29.595Z,28.69
2019-05-06T09:15:03.505Z,31.35
2019-05-06T09:17:37.594Z,31.85
2019-05-06T09:20:12.901Z,32.60
2019-05-06T09:22:44.895Z,32.59
2019-05-06T09:25:17.595Z,33.13
2019-05-06T09:27:52.668Z,33.19
2019-05-06T09:30:43.072Z,33.79
2019-05-06T09:33:16.454Z,33.42
2019-05-06T09:35:49.195Z,31.30
2019-05-06T09:38:22.842Z,30.40
2019-05-06T09:40:55.407Z,30.66
2019-05-06T09:43:28.316Z,32.38
2019-05-06T09:46:03.555Z,32.40
2019-05-06T09:48:42.443Z,30.63
2019-05-06T09:51:15.355Z,31.82
2019-05-06T09:54:08.156Z,31.47
2019-05-06T09:56:58.798Z,30.46
2019-05-06T09:59:32.173Z,31.83
2019-05-06T10:02:05.608Z,32.74
2019-05-06T10:04:38.935Z,32.88
2019-05-06T10:07:14.295Z,31.50
2019-05-06T10:09:46.715Z,31.48
2019-05-06T10:12:19.781Z,32.29
2019-05-06T10:14:53.211Z,32.97
2019-05-06T10:17:25.903Z,32.35
2019-05-06T10:19:58.795Z,29.82
2019-05-06T10:22:32.438Z,30.78
2019-05-06T10:25:06.496Z,31.61
2019-05-06T10:27:42.212Z,30.01
2019-05-06T10:30:17.616Z,32.59
2019-05-06T10:32:52.886Z,31.94
2019-05-06T10:35:29.169Z,32.30
2019-05-06T10:38:32.815Z,34.60
2019-05-06T10:41:22.483Z,34.29
2019-05-06T10:44:42.787Z,33.32
2019-05-06T10:47:14.355Z,34.44
2019-05-06T10:49:46.857Z,33.44
2019-05-06T10:52:24.134Z,32.20
2019-05-06T10:54:57.135Z,31.10
2019-05-06T10:57:32.825Z,29.06
2019-05-06T11:00:07.866Z,27.97
2019-05-06T11:02:45.975Z,30.80
2019-05-06T11:05:19.111Z,32.44
2019-05-06T11:07:52.677Z,33.76
2019-05-06T11:10:29.528Z,33.66
2019-05-06T11:12:59.114Z,34.78
2019-05-06T11:15:33.025Z,36.35
2019-05-06T11:18:06.215Z,37.51
2019-05-06T11:20:40.093Z,37.18
2019-05-06T11:23:14.144Z,37.69
2019-05-06T11:25:46.536Z,37.47
2019-05-06T11:28:36.475Z,38.49
2019-05-06T11:31:09.374Z,38.21
2019-05-06T11:33:52.596Z,39.50
2019-05-06T11:36:29.496Z,39.82
2019-05-06T11:39:07.600Z,38.49
2019-05-06T11:41:56.487Z,39.27
2019-05-06T11:44:14.475Z,39.20
2019-05-06T11:46:46.895Z,36.74
2019-05-06T11:49:20.325Z,37.43
2019-05-06T11:51:52.599Z,35.54
2019-05-06T11:54:25.137Z,35.26
2019-05-06T11:56:58.578Z,36.58
2019-05-06T11:59:31.335Z,34.61
2019-05-06T12:02:08.275Z,35.24
2019-05-06T12:04:41.940Z,34.33
2019-05-06T12:07:15.699Z,33.78
2019-05-06T12:09:48.826Z,33.54
2019-05-06T12:12:23.343Z,33.27
2019-05-06T12:14:55.675Z,33.96
2019-05-06T12:17:28.035Z,34.12
2019-05-06T12:20:02.990Z,33.64
2019-05-06T12:22:37.795Z,33.28
2019-05-06T12:25:15.301Z,33.86
2019-05-06T12:27:49.495Z,33.72
2019-05-06T12:30:24.556Z,34.14
2019-05-06T12:33:03.238Z,33.14
2019-05-06T12:35:37.835Z,33.35
2019-05-06T12:38:26.708Z,34.28
2019-05-06T12:40:48.895Z,33.40
2019-05-06T12:43:24.436Z,33.96
2019-05-06T12:46:02.960Z,35.18
2019-05-06T12:48:43.972Z,35.00
2019-05-06T12:51:16.916Z,34.69
2019-05-06T12:53:49.395Z,33.72
2019-05-06T12:56:24.395Z,34.21
2019-05-06T12:58:57.315Z,30.62
2019-05-06T13:01:33.496Z,32.63
2019-05-06T13:04:04.831Z,32.01
2019-05-06T13:06:37.565Z,30.47
2019-05-06T13:09:12.420Z,31.19
2019-05-06T13:11:44.055Z,28.96
2019-05-06T13:14:16.500Z,30.51
2019-05-06T13:16:49.137Z,30.93
2019-05-06T13:19:22.815Z,31.22
2019-05-06T13:21:55.659Z,30.51
2019-05-06T13:24:28.156Z,30.29
2019-05-06T13:27:02.608Z,31.20
2019-05-06T13:29:35.713Z,29.85
2019-05-06T13:32:12.674Z,29.86
2019-05-06T13:34:44.958Z,29.54
2019-05-06T13:37:17.842Z,28.05
2019-05-06T13:39:52.768Z,27.89
2019-05-06T13:42:27.055Z,27.46
2019-05-06T13:44:59.456Z,28.96
2019-05-06T13:47:43.776Z,26.31
2019-05-06T13:50:22.910Z,26.65
2019-05-06T13:53:08.041Z,28.10
2019-05-06T13:55:31.096Z,26.77
2019-05-06T13:58:03.761Z,26.00
2019-05-06T14:00:37.015Z,26.10
2019-05-06T14:03:09.535Z,25.28
2019-05-06T14:05:42.579Z,25.40
2019-05-06T14:08:15.186Z,26.15
2019-05-06T14:10:56.796Z,24.92
2019-05-06T14:13:22.099Z,24.81
2019-05-06T14:15:54.675Z,25.85
2019-05-06T14:18:28.075Z,26.57
2019-05-06T14:21:02.919Z,25.93
2019-05-06T14:23:34.835Z,26.25
2019-05-06T14:26:07.415Z,26.94
2019-05-06T14:28:43.041Z,26.90
2019-05-06T14:31:17.185Z,26.41
2019-05-06T14:33:52.095Z,26.37
2019-05-06T14:36:27.542Z,26.00
2019-05-06T14:38:58.936Z,25.53
2019-05-06T14:41:32.747Z,25.46
2019-05-06T14:44:07.511Z,26.22
2019-05-06T14:46:57.192Z,26.47
2019-05-06T14:49:32.377Z,26.11
2019-05-06T14:52:06.054Z,26.40
2019-05-06T14:54:49.485Z,25.34
2019-05-06T14:57:22.928Z,25.48
2019-05-06T14:59:55.970Z,26.04
2019-05-06T15:02:28.917Z,26.38
2019-05-06T15:05:02.988Z,27.61
2019-05-06T15:07:35.965Z,27.97
2019-05-06T15:10:20.311Z,27.51
2019-05-06T15:12:43.591Z,27.49
2019-05-06T15:15:16.939Z,27.69
2019-05-06T15:17:49.476Z,27.74
2019-05-06T15:20:23.027Z,27.23
2019-05-06T15:22:56.360Z,25.99
2019-05-06T15:25:28.985Z,27.51
2019-05-06T15:28:02.545Z,28.29
2019-05-06T15:30:46.080Z,28.38
2019-05-06T15:33:22.465Z,28.18
2019-05-06T15:35:59.506Z,29.18
2019-05-06T15:38:32.603Z,30.24
2019-05-06T15:41:05.411Z,29.07
2019-05-06T15:43:38.250Z,29.30
2019-05-06T15:46:12.217Z,30.99
2019-05-06T15:48:45.030Z,30.83
2019-05-06T15:51:19.220Z,31.78
2019-05-06T15:53:52.961Z,31.49
2019-05-06T15:56:25.881Z,31.61
2019-05-06T15:58:58.310Z,31.39
2019-05-06T16:01:33.213Z,32.36
2019-05-06T16:04:05.499Z,32.22
2019-05-06T16:06:38.355Z,32.55
2019-05-06T16:09:14.219Z,31.29
2019-05-06T16:11:45.155Z,31.54
2019-05-06T16:14:17.585Z,31.68
2019-05-06T16:16:52.677Z,31.45
2019-05-06T16:19:24.964Z,31.42
2019-05-06T16:21:57.989Z,30.92
2019-05-06T16:24:35.244Z,31.48
2019-05-06T16:27:07.949Z,31.19
2019-05-06T16:29:42.888Z,31.31
2019-05-06T16:32:16.740Z,31.53
2019-05-06T16:34:49.816Z,31.93
2019-05-06T16:37:22.453Z,32.89
2019-05-06T16:39:55.015Z,30.99
2019-05-06T16:42:27.861Z,31.85
2019-05-06T16:45:06.963Z,32.25
2019-05-06T16:47:37.656Z,32.15
2019-05-06T16:50:17.375Z,31.83
2019-05-06T16:52:52.341Z,33.21
2019-05-06T16:55:28.899Z,33.16
2019-05-06T16:58:06.265Z,32.47
2019-05-06T17:00:38.870Z,33.24
2019-05-06T17:03:14.593Z,32.89
2019-05-06T17:05:52.002Z,32.79
2019-05-06T17:08:24.995Z,33.51
2019-05-06T17:10:57.786Z,33.41
2019-05-06T17:13:31.078Z,33.68
2019-05-06T17:16:03.789Z,33.52
2019-05-06T17:18:36.490Z,34.27
2019-05-06T17:21:09.201Z,34.62
2019-05-06T17:23:42.319Z,33.73
2019-05-06T17:26:15.076Z,34.92
2019-05-06T17:28:49.216Z,34.08
2019-05-06T17:31:37.135Z,34.95
2019-05-06T17:34:12.823Z,34.91
2019-05-06T17:36:46.047Z,35.64
2019-05-06T17:39:18.660Z,36.05
2019-05-06T17:41:52.192Z,36.19
2019-05-06T17:44:25.290Z,36.13
2019-05-06T17:47:02.653Z,36.74
2019-05-06T17:49:37.045Z,37.25
2019-05-06T17:52:14.226Z,37.09
2019-05-06T17:54:46.786Z,37.40
2019-05-06T17:57:19.440Z,38.11
2019-05-06T17:59:52.824Z,37.99
2019-05-06T18:02:27.202Z,38.68
2019-05-06T18:04:59.680Z,39.45
2019-05-06T18:07:32.785Z,39.55
2019-05-06T18:10:06.200Z,40.79
2019-05-06T18:12:38.956Z,40.72
2019-05-06T18:15:13.377Z,40.74
2019-05-06T18:17:46.244Z,40.45
2019-05-06T18:20:19.125Z,41.27
2019-05-06T18:22:52.502Z,41.92
2019-05-06T18:25:25.435Z,42.59
2019-05-06T18:27:58.005Z,43.33
2019-05-06T18:30:34.289Z,43.70
2019-05-06T18:33:05.287Z,44.45
2019-05-06T18:35:37.965Z,43.94
2019-05-06T18:38:10.505Z,44.93
2019-05-06T18:40:43.175Z,45.29
2019-05-06T18:43:15.905Z,47.15
2019-05-06T18:45:48.815Z,48.02
2019-05-06T18:48:22.440Z,47.57
2019-05-06T18:50:55.175Z,47.86
2019-05-06T18:53:28.945Z,48.11
2019-05-06T18:56:03.116Z,47.70
2019-05-06T18:58:36.030Z,48.86
2019-05-06T19:01:08.966Z,49.82
2019-05-06T19:03:46.461Z,49.52
2019-05-06T19:06:19.035Z,50.34
2019-05-06T19:09:02.629Z,49.91
2019-05-06T19:11:37.070Z,50.34
2019-05-06T19:14:09.656Z,50.24
2019-05-06T19:16:49.854Z,50.15
2019-05-06T19:19:16.695Z,50.71
2019-05-06T19:21:49.225Z,51.01
2019-05-06T19:24:22.669Z,50.91
2019-05-06T19:26:55.474Z,52.45
2019-05-06T19:29:28.300Z,52.08
2019-05-06T19:32:03.037Z,52.17
2019-05-06T19:34:36.240Z,51.55
2019-05-06T19:37:09.132Z,51.98
2019-05-06T19:39:43.120Z,52.51
2019-05-06T19:42:16.105Z,52.21
2019-05-06T19:44:48.806Z,52.34
2019-05-06T19:47:21.431Z,52.67
2019-05-06T19:49:54.290Z,53.10
2019-05-06T19:52:26.926Z,52.26
2019-05-06T19:55:02.924Z,52.93
2019-05-06T19:57:34.804Z,52.45
2019-05-06T20:00:09.080Z,53.38
2019-05-06T20:02:42.936Z,52.89
2019-05-06T20:05:17.505Z,52.71
2019-05-06T20:07:52.230Z,52.37
2019-05-06T20:10:26.529Z,52.45
2019-05-06T20:13:05.276Z,52.36
2019-05-06T20:15:39.055Z,51.87
2019-05-06T20:18:12.894Z,51.84
2019-05-06T20:20:45.685Z,51.84
2019-05-06T20:23:18.215Z,51.62
2019-05-06T20:25:51.926Z,51.61
2019-05-06T20:28:24.795Z,50.32
2019-05-06T20:30:57.585Z,50.83
2019-05-06T20:33:32.539Z,50.83
2019-05-06T20:36:04.499Z,50.26
2019-05-06T20:38:37.151Z,51.04
2019-05-06T20:41:09.745Z,50.88
2019-05-06T20:43:42.413Z,50.65
2019-05-06T20:46:15.020Z,50.26
2019-05-06T20:48:47.680Z,50.65
2019-05-06T20:51:21.957Z,51.73
2019-05-06T20:53:54.745Z,51.73
2019-05-06T20:56:27.521Z,52.07
2019-05-06T20:59:02.381Z,51.49
2019-05-06T21:01:34.880Z,50.60
2019-05-06T21:04:07.600Z,51.81
2019-05-06T21:06:42.418Z,50.94
2019-05-06T21:09:14.800Z,50.94
2019-05-06T21:11:47.510Z,51.67
2019-05-06T21:14:22.551Z,51.58
2019-05-06T21:16:54.720Z,51.27
2019-05-06T21:19:27.541Z,51.69
2019-05-06T21:22:02.182Z,51.45
2019-05-06T21:24:36.196Z,51.93
2019-05-06T21:27:08.821Z,51.73
2019-05-06T21:29:42.104Z,51.73
2019-05-06T21:32:14.775Z,52.13
2019-05-06T21:34:47.360Z,53.33
2019-05-06T21:37:20.461Z,53.50
2019-05-06T21:39:53.050Z,53.50
2019-05-06T21:42:25.740Z,53.53
2019-05-06T21:44:58.500Z,53.78
2019-05-06T21:47:32.542Z,54.50
2019-05-06T21:50:05.860Z,54.50
2019-05-06T21:52:42.272Z,55.31
2019-05-06T21:55:14.799Z,55.28
2019-05-06T21:57:47.074Z,55.41
2019-05-06T22:00:23.382Z,55.41
2019-05-06T22:02:57.870Z,56.87
2019-05-06T22:05:32.073Z,56.22
2019-05-06T22:08:04.900Z,56.64
2019-05-06T22:10:37.860Z,57.23
2019-05-06T22:13:12.596Z,57.29
2019-05-06T22:15:44.509Z,58.03
2019-05-06T22:18:17.045Z,57.99
2019-05-06T22:21:07.145Z,58.51
2019-05-06T22:23:55.418Z,58.06
2019-05-06T22:26:29.049Z,58.44
2019-05-06T22:29:02.159Z,58.97
2019-05-06T22:31:34.840Z,58.62
2019-05-06T22:34:07.665Z,59.39
2019-05-06T22:36:39.949Z,59.50
2019-05-06T22:39:13.566Z,59.68
2019-05-06T22:41:46.095Z,59.65
2019-05-06T22:44:18.780Z,58.98
2019-05-06T22:46:51.549Z,59.31
2019-05-06T22:49:24.824Z,59.29
2019-05-06T22:51:57.373Z,59.26
2019-05-06T22:54:31.976Z,59.37
2019-05-06T22:57:04.056Z,59.37
2019-05-06T22:59:36.975Z,59.74
2019-05-06T23:02:09.350Z,60.41
2019-05-06T23:04:43.618Z,60.80
2019-05-06T23:07:16.350Z,61.10
2019-05-06T23:09:49.500Z,60.89
2019-05-06T23:12:23.149Z,61.38
2019-05-06T23:14:55.717Z,61.63
2019-05-06T23:17:28.431Z,62.38
2019-05-06T23:20:02.322Z,62.24
2019-05-06T23:22:35.286Z,62.63
2019-05-06T23:25:08.740Z,62.91
2019-05-06T23:27:43.887Z,63.00
2019-05-06T23:30:15.730Z,63.05
2019-05-06T23:32:48.125Z,63.56
2019-05-06T23:35:21.995Z,63.95
2019-05-06T23:38:49.050Z,64.00
2019-05-06T23:42:16.194Z,64.16
2019-05-06T23:45:42.876Z,64.88
2019-05-06T23:49:09.759Z,65.13
2019-05-06T23:52:36.635Z,64.78
2019-05-06T23:56:04.080Z,65.44
2019-05-06T23:58:36.625Z,66.43
